createdAt,value
2019-05-29T00:00:48.159Z,100631.66
2019-05-29T00:03:18.663Z,100631.62
2019-05-29T00:05:48.538Z,100639.84
2019-05-29T00:08:18.582Z,100642.91
2019-05-29T00:10:48.399Z,100640.84
2019-05-29T00:13:18.527Z,100645.65
2019-05-29T00:15:48.304Z,100644.11
2019-05-29T00:18:18.644Z,100647.39
2019-05-29T00:20:48.483Z,100652.67
2019-05-29T00:23:18.843Z,100649.57
2019-05-29T00:25:48.740Z,100655.23
2019-05-29T00:28:18.597Z,100655.03
2019-05-29T00:30:48.500Z,100659.98
2019-05-29T00:33:18.408Z,100657.97
2019-05-29T00:35:48.281Z,100658.62
2019-05-29T00:38:18.121Z,100662.38
2019-05-29T00:40:47.916Z,100667.63
2019-05-29T00:43:17.715Z,100667.45
2019-05-29T00:45:47.557Z,100667.83
2019-05-29T00:48:17.891Z,100664.39
2019-05-29T00:50:47.793Z,100663.39
2019-05-29T00:53:18.393Z,100664.59
2019-05-29T00:55:48.215Z,100666.98
2019-05-29T00:58:19.793Z,100670.59
2019-05-29T01:00:49.753Z,100679.78
2019-05-29T01:03:19.797Z,100677.73
2019-05-29T01:05:49.659Z,100684.92
2019-05-29T01:08:20.499Z,100691.23
2019-05-29T01:10:50.357Z,100684.24
2019-05-29T01:13:21.189Z,100682.22
2019-05-29T01:15:51.543Z,100683.06
2019-05-29T01:18:22.362Z,100693.86
2019-05-29T01:20:52.351Z,100696.42
2019-05-29T01:23:22.429Z,100703.06
2019-05-29T01:25:52.217Z,100707.17
2019-05-29T01:28:23.127Z,100718.78
2019-05-29T01:30:52.980Z,100717.08
2019-05-29T01:33:24.860Z,100721.70
2019-05-29T01:35:54.903Z,100718.44
2019-05-29T01:38:24.758Z,100719.29
2019-05-29T01:40:54.565Z,100725.61
2019-05-29T01:43:24.384Z,100732.91
2019-05-29T01:45:54.206Z,100740.62
2019-05-29T01:48:24.064Z,100747.78
2019-05-29T01:50:53.962Z,100749.11
2019-05-29T01:53:23.946Z,100761.91
2019-05-29T01:55:53.752Z,100763.44
2019-05-29T01:58:23.857Z,100761.91
2019-05-29T02:00:53.902Z,100770.27
2019-05-29T02:03:24.044Z,100766.15
2019-05-29T02:05:53.913Z,100771.63
2019-05-29T02:08:24.293Z,100768.53
2019-05-29T02:10:54.224Z,100771.95
2019-05-29T02:13:24.004Z,100769.06
2019-05-29T02:15:54.305Z,100762.75
2019-05-29T02:18:25.105Z,100769.89
2019-05-29T02:20:54.925Z,100783.73
2019-05-29T02:23:24.831Z,100776.20
2019-05-29T02:25:54.604Z,100782.36
2019-05-29T02:28:24.645Z,100790.02
2019-05-29T02:30:54.526Z,100786.95
2019-05-29T02:33:26.177Z,100793.14
2019-05-29T02:35:55.889Z,100796.17
2019-05-29T02:38:27.251Z,100802.30
2019-05-29T02:40:57.231Z,100809.11
2019-05-29T02:43:27.759Z,100807.05
2019-05-29T02:45:58.616Z,100806.37
2019-05-29T02:48:30.110Z,100809.09
2019-05-29T02:50:59.977Z,100815.09
2019-05-29T02:53:30.833Z,100809.80
2019-05-29T02:56:00.831Z,100820.20
2019-05-29T02:58:31.806Z,100821.06
2019-05-29T03:01:01.908Z,100821.02
2019-05-29T03:03:38.785Z,100829.24
2019-05-29T03:06:03.779Z,100836.02
2019-05-29T03:08:34.454Z,100841.45
2019-05-29T03:11:04.751Z,100840.09
2019-05-29T03:13:34.664Z,100840.63
2019-05-29T03:16:25.686Z,100852.22
2019-05-29T03:18:55.441Z,100856.12
2019-05-29T03:21:26.085Z,100862.45
2019-05-29T03:23:56.266Z,100871.13
2019-05-29T03:26:27.651Z,100873.85
2019-05-29T03:28:58.018Z,100887.52
2019-05-29T03:31:34.220Z,100893.98
2019-05-29T03:33:59.591Z,100892.62
2019-05-29T03:36:35.825Z,100903.02
2019-05-29T03:39:01.401Z,100907.48
2019-05-29T03:41:32.755Z,100910.75
2019-05-29T03:44:02.846Z,100914.20
2019-05-29T03:46:41.077Z,100910.11
2019-05-29T03:49:04.683Z,100919.33
2019-05-29T03:51:36.701Z,100926.69
2019-05-29T03:54:06.285Z,100930.77
2019-05-29T03:56:36.174Z,100937.73
2019-05-29T03:59:06.094Z,100947.29
2019-05-29T04:01:37.482Z,100957.89
2019-05-29T04:04:07.667Z,100959.41
2019-05-29T04:06:37.785Z,100955.81
2019-05-29T04:09:08.332Z,100968.13
2019-05-29T04:11:38.509Z,100967.10
2019-05-29T04:14:08.454Z,100974.80
2019-05-29T04:16:57.336Z,100982.53
2019-05-29T04:19:13.201Z,100987.13
2019-05-29T04:21:45.107Z,100990.97
2019-05-29T04:24:16.988Z,100986.23
2019-05-29T04:26:49.465Z,100989.65
2019-05-29T04:29:20.226Z,100999.69
2019-05-29T04:31:50.385Z,100999.53
2019-05-29T04:34:20.304Z,101002.61
2019-05-29T04:36:50.211Z,101005.70
2019-05-29T04:39:20.214Z,101009.44
2019-05-29T04:41:50.227Z,101017.62
2019-05-29T04:44:20.220Z,101016.27
2019-05-29T04:47:07.089Z,101021.11
2019-05-29T04:49:21.973Z,101017.98
2019-05-29T04:51:51.940Z,101028.64
2019-05-29T04:54:21.819Z,101031.00
2019-05-29T04:56:51.831Z,101036.80
2019-05-29T04:59:21.937Z,101033.09
2019-05-29T05:01:51.852Z,101034.08
2019-05-29T05:04:21.883Z,101040.56
2019-05-29T05:06:51.943Z,101035.84
2019-05-29T05:09:21.928Z,101045.37
2019-05-29T05:11:52.150Z,101052.23
2019-05-29T05:14:22.800Z,101049.84
2019-05-29T05:16:54.141Z,101061.98
2019-05-29T05:19:24.198Z,101071.37
2019-05-29T05:21:54.205Z,101076.33
2019-05-29T05:24:25.073Z,101072.40
2019-05-29T05:26:55.681Z,101075.98
2019-05-29T05:29:26.234Z,101089.48
2019-05-29T05:31:56.241Z,101096.15
2019-05-29T05:34:26.944Z,101094.57
2019-05-29T05:36:56.983Z,101104.50
2019-05-29T05:39:26.887Z,101093.24
2019-05-29T05:41:56.817Z,101091.36
2019-05-29T05:44:26.867Z,101105.86
2019-05-29T05:46:57.037Z,101104.87
2019-05-29T05:49:27.108Z,101104.37
2019-05-29T05:51:57.022Z,101118.55
2019-05-29T05:54:26.987Z,101118.68
2019-05-29T05:56:56.989Z,101121.59
2019-05-29T05:59:27.000Z,101113.70
2019-05-29T06:01:56.888Z,101121.74
2019-05-29T06:04:26.914Z,101127.63
2019-05-29T06:06:56.886Z,101140.09
2019-05-29T06:09:26.841Z,101153.09
2019-05-29T06:11:57.845Z,101152.22
2019-05-29T06:14:30.450Z,101168.13
2019-05-29T06:17:00.395Z,101164.72
2019-05-29T06:19:30.548Z,101176.18
2019-05-29T06:22:00.484Z,101169.69
2019-05-29T06:24:30.532Z,101167.62
2019-05-29T06:27:00.565Z,101168.99
2019-05-29T06:29:30.748Z,101172.92
2019-05-29T06:32:01.509Z,101172.20
2019-05-29T06:34:33.975Z,101181.99
2019-05-29T06:37:08.801Z,101187.80
2019-05-29T06:39:43.806Z,101186.27
2019-05-29T06:42:19.314Z,101196.36
2019-05-29T06:44:50.379Z,101184.55
2019-05-29T06:47:21.008Z,101189.36
2019-05-29T06:49:50.961Z,101198.42
2019-05-29T06:52:21.796Z,101200.30
2019-05-29T06:54:51.718Z,101211.91
2019-05-29T06:57:25.781Z,101208.84
2019-05-29T07:00:00.380Z,101209.19
2019-05-29T07:02:32.806Z,101212.61
2019-05-29T07:05:03.463Z,101216.67
2019-05-29T07:07:35.886Z,101222.34
2019-05-29T07:10:06.994Z,101232.58
2019-05-29T07:12:38.354Z,101227.59
2019-05-29T07:15:09.013Z,101232.20
2019-05-29T07:17:40.334Z,101228.11
2019-05-29T07:20:10.929Z,101241.24
2019-05-29T07:22:40.973Z,101245.07
2019-05-29T07:25:10.949Z,101259.79
2019-05-29T07:27:41.277Z,101252.93
2019-05-29T07:30:11.541Z,101250.64
2019-05-29T07:32:43.213Z,101256.20
2019-05-29T07:35:13.551Z,101254.66
2019-05-29T07:37:45.921Z,101263.41
2019-05-29T07:40:17.879Z,101266.14
2019-05-29T07:42:53.658Z,101265.77
2019-05-29T07:45:19.839Z,101263.20
2019-05-29T07:47:49.952Z,101267.81
2019-05-29T07:50:20.152Z,101277.17
2019-05-29T07:52:50.163Z,101268.31
2019-05-29T07:55:23.551Z,101269.48
2019-05-29T07:57:52.047Z,101272.05
2019-05-29T08:00:22.120Z,101288.27
2019-05-29T08:02:51.984Z,101282.15
2019-05-29T08:05:21.911Z,101286.73
2019-05-29T08:07:51.838Z,101290.85
2019-05-29T08:10:22.085Z,101297.73
2019-05-29T08:12:55.527Z,101302.28
2019-05-29T08:15:23.698Z,101304.36
2019-05-29T08:17:53.740Z,101293.04
2019-05-29T08:20:23.869Z,101302.32
2019-05-29T08:22:53.956Z,101297.95
2019-05-29T08:25:23.982Z,101299.80
2019-05-29T08:27:53.921Z,101304.17
2019-05-29T08:30:23.944Z,101313.06
2019-05-29T08:32:53.931Z,101314.06
2019-05-29T08:35:23.899Z,101311.30
2019-05-29T08:37:53.882Z,101313.97
2019-05-29T08:40:24.035Z,101311.31
2019-05-29T08:42:53.940Z,101315.72
2019-05-29T08:45:23.865Z,101323.25
2019-05-29T08:47:53.856Z,101327.54
2019-05-29T08:50:24.066Z,101324.42
2019-05-29T08:52:54.159Z,101338.14
2019-05-29T08:55:24.206Z,101333.09
2019-05-29T08:57:54.119Z,101335.75
2019-05-29T09:00:24.363Z,101333.66
2019-05-29T09:02:54.474Z,101327.69
2019-05-29T09:05:24.403Z,101345.09
2019-05-29T09:07:54.980Z,101345.81
2019-05-29T09:10:24.928Z,101340.75
2019-05-29T09:13:04.448Z,101340.88
2019-05-29T09:15:26.709Z,101352.55
2019-05-29T09:18:39.529Z,101341.75
2019-05-29T09:21:34.405Z,101345.18
2019-05-29T09:27:30.599Z,101350.95
2019-05-29T09:34:32.535Z,101350.97
2019-05-29T09:37:36.510Z,101356.09
2019-05-29T09:40:23.330Z,101371.86
2019-05-29T09:43:11.010Z,101362.80
2019-05-29T09:45:55.383Z,101367.78
2019-05-29T09:48:48.776Z,101366.42
2019-05-29T09:51:54.118Z,101366.86
2019-05-29T09:54:24.830Z,101361.03
2019-05-29T09:56:57.850Z,101365.46
2019-05-29T09:59:29.999Z,101370.05
2019-05-29T10:02:05.772Z,101377.20
2019-05-29T10:04:34.728Z,101381.47
2019-05-29T10:07:05.202Z,101390.80
2019-05-29T10:09:45.269Z,101387.44
2019-05-29T10:12:17.276Z,101389.13
2019-05-29T10:14:47.337Z,101381.70
2019-05-29T10:17:19.284Z,101387.07
2019-05-29T10:19:50.285Z,101396.75
2019-05-29T10:22:22.464Z,101403.92
2019-05-29T10:24:52.390Z,101388.91
2019-05-29T10:27:22.297Z,101385.95
2019-05-29T10:29:53.173Z,101379.65
2019-05-29T10:32:23.853Z,101394.40
2019-05-29T10:34:53.749Z,101389.83
2019-05-29T10:37:23.653Z,101404.58
2019-05-29T10:39:53.613Z,101397.55
2019-05-29T10:42:23.543Z,101388.12
2019-05-29T10:44:53.428Z,101394.16
2019-05-29T10:47:23.330Z,101393.45
2019-05-29T10:49:53.820Z,101391.48
2019-05-29T10:52:23.865Z,101405.61
2019-05-29T10:54:54.456Z,101400.22
2019-05-29T10:57:24.514Z,101403.70
2019-05-29T10:59:54.898Z,101409.85
2019-05-29T11:02:24.840Z,101403.37
2019-05-29T11:04:57.221Z,101410.08
2019-05-29T11:07:26.417Z,101409.41
2019-05-29T11:09:56.375Z,101402.69
2019-05-29T11:12:26.308Z,101407.00
2019-05-29T11:14:56.943Z,101401.62
2019-05-29T11:17:26.908Z,101403.09
2019-05-29T11:19:58.275Z,101391.91
2019-05-29T11:22:28.293Z,101388.91
2019-05-29T11:25:00.246Z,101393.80
2019-05-29T11:27:29.837Z,101404.30
2019-05-29T11:29:59.700Z,101406.95
2019-05-29T11:32:29.510Z,101409.44
2019-05-29T11:34:59.670Z,101406.59
2019-05-29T11:37:29.570Z,101399.92
2019-05-29T11:39:59.437Z,101399.52
2019-05-29T11:42:29.335Z,101399.80
2019-05-29T11:44:59.565Z,101392.75
2019-05-29T11:47:29.597Z,101392.59
2019-05-29T11:50:10.179Z,101387.00
2019-05-29T11:52:42.528Z,101412.41
2019-05-29T11:55:04.865Z,101408.20
2019-05-29T11:57:34.972Z,101400.17
2019-05-29T12:00:17.038Z,101394.64
2019-05-29T12:02:37.953Z,101388.27
2019-05-29T12:05:10.263Z,101393.89
2019-05-29T12:07:40.170Z,101385.70
2019-05-29T12:10:10.706Z,101398.71
2019-05-29T12:12:40.848Z,101401.39
2019-05-29T12:15:15.533Z,101392.89
2019-05-29T12:17:43.292Z,101396.56
2019-05-29T12:20:26.723Z,101398.41
2019-05-29T12:23:11.225Z,101392.28
2019-05-29T12:25:17.183Z,101399.92
2019-05-29T12:28:18.014Z,101399.20
2019-05-29T12:36:48.275Z,101397.70
2019-05-29T12:41:03.993Z,101404.88
2019-05-29T12:43:55.270Z,101404.88
2019-05-29T12:46:30.525Z,101403.22
2019-05-29T12:49:05.452Z,101395.69
2019-05-29T12:51:37.351Z,101413.59
2019-05-29T12:54:13.698Z,101405.91
2019-05-29T12:56:42.783Z,101397.95
2019-05-29T12:59:15.312Z,101404.55
2019-05-29T13:01:56.214Z,101406.87
2019-05-29T13:04:26.547Z,101392.06
2019-05-29T13:07:05.401Z,101394.90
2019-05-29T13:12:31.600Z,101396.78
2019-05-29T13:15:03.452Z,101410.13
2019-05-29T13:17:32.999Z,101401.05
2019-05-29T13:20:19.090Z,101403.61
2019-05-29T13:22:34.498Z,101402.06
2019-05-29T13:25:05.525Z,101404.31
2019-05-29T13:27:35.436Z,101389.73
2019-05-29T13:30:08.289Z,101399.48
2019-05-29T13:32:38.740Z,101396.97
2019-05-29T13:35:09.739Z,101397.98
2019-05-29T13:37:39.675Z,101394.08
2019-05-29T13:40:10.548Z,101394.34
2019-05-29T13:42:40.581Z,101399.46
2019-05-29T13:45:18.355Z,101398.30
2019-05-29T13:47:44.314Z,101389.13
2019-05-29T13:50:15.643Z,101404.08
2019-05-29T13:52:45.493Z,101396.17
2019-05-29T13:55:17.039Z,101402.11
2019-05-29T13:57:46.895Z,101401.59
2019-05-29T14:00:33.126Z,101396.63
2019-05-29T14:02:50.378Z,101401.14
2019-05-29T14:05:20.463Z,101403.45
2019-05-29T14:07:50.340Z,101407.48
2019-05-29T14:10:21.129Z,101404.09
2019-05-29T14:12:50.997Z,101404.67
2019-05-29T14:15:21.910Z,101408.05
2019-05-29T14:17:51.898Z,101406.56
2019-05-29T14:20:22.025Z,101404.00
2019-05-29T14:22:51.893Z,101413.00
2019-05-29T14:25:22.208Z,101402.41
2019-05-29T14:27:52.197Z,101411.59
2019-05-29T14:30:22.504Z,101412.30
2019-05-29T14:32:52.390Z,101417.23
2019-05-29T14:35:22.201Z,101423.02
2019-05-29T14:37:52.149Z,101419.14
2019-05-29T14:40:22.250Z,101419.47
2019-05-29T14:42:52.046Z,101424.84
2019-05-29T14:45:22.142Z,101420.91
2019-05-29T14:47:51.997Z,101432.08
2019-05-29T14:50:22.219Z,101426.13
2019-05-29T14:52:52.182Z,101422.62
2019-05-29T14:55:46.583Z,101425.35
2019-05-29T15:01:24.612Z,101415.30
2019-05-29T15:04:01.543Z,101416.63
2019-05-29T15:07:05.768Z,101432.98
2019-05-29T15:09:57.810Z,101449.00
2019-05-29T15:16:53.274Z,101440.00
2019-05-29T15:19:23.188Z,101433.91
2019-05-29T15:21:52.975Z,101426.16
2019-05-29T15:24:23.927Z,101435.89
2019-05-29T15:26:53.837Z,101429.92
2019-05-29T15:29:23.743Z,101434.73
2019-05-29T15:31:53.685Z,101429.38
2019-05-29T15:34:23.566Z,101430.49
2019-05-29T15:36:53.602Z,101418.89
2019-05-29T15:39:23.765Z,101432.34
2019-05-29T15:41:53.670Z,101440.18
2019-05-29T15:44:23.509Z,101442.24
2019-05-29T15:46:53.450Z,101440.73
2019-05-29T15:49:23.362Z,101442.30
2019-05-29T15:51:53.539Z,101443.66
2019-05-29T15:54:23.445Z,101452.86
2019-05-29T15:56:53.328Z,101449.73
2019-05-29T15:59:23.119Z,101457.72
2019-05-29T16:01:53.052Z,101447.03
2019-05-29T16:04:23.670Z,101445.27
2019-05-29T16:06:55.089Z,101442.36
2019-05-29T16:09:25.078Z,101439.68
2019-05-29T16:11:54.890Z,101446.17
2019-05-29T16:14:24.787Z,101448.36
2019-05-29T16:16:54.622Z,101459.26
2019-05-29T16:19:24.499Z,101448.89
2019-05-29T16:21:54.328Z,101456.61
2019-05-29T16:24:24.124Z,101454.55
2019-05-29T16:27:07.952Z,101458.06
2019-05-29T16:29:25.751Z,101447.04
2019-05-29T16:31:55.650Z,101442.27
2019-05-29T16:34:25.523Z,101464.78
2019-05-29T16:36:55.380Z,101458.91
2019-05-29T16:39:25.242Z,101460.04
2019-05-29T16:41:55.097Z,101463.72
2019-05-29T16:44:29.312Z,101471.09
2019-05-29T16:46:56.714Z,101474.88
2019-05-29T16:49:26.572Z,101477.80
2019-05-29T16:51:56.413Z,101485.70
2019-05-29T16:54:26.206Z,101477.34
2019-05-29T16:56:56.052Z,101473.04
2019-05-29T16:59:29.046Z,101479.66
2019-05-29T17:01:57.905Z,101477.02
2019-05-29T17:04:27.855Z,101480.70
2019-05-29T17:06:57.783Z,101485.27
2019-05-29T17:09:27.651Z,101488.55
2019-05-29T17:11:57.521Z,101494.83
2019-05-29T17:14:28.181Z,101493.02
2019-05-29T17:16:58.021Z,101494.06
2019-05-29T17:19:27.861Z,101486.91
2019-05-29T17:21:58.273Z,101492.52
2019-05-29T17:24:28.424Z,101501.18
2019-05-29T17:26:58.299Z,101499.13
2019-05-29T17:29:28.381Z,101490.09
2019-05-29T17:31:58.277Z,101501.42
2019-05-29T17:34:28.288Z,101498.66
2019-05-29T17:36:58.267Z,101503.16
2019-05-29T17:39:28.156Z,101503.23
2019-05-29T17:41:58.000Z,101510.41
2019-05-29T17:44:27.990Z,101509.22
2019-05-29T17:46:57.901Z,101506.22
2019-05-29T17:49:34.297Z,101510.95
2019-05-29T17:51:59.407Z,101517.04
2019-05-29T17:54:29.312Z,101508.50
2019-05-29T17:56:59.208Z,101506.08
2019-05-29T17:59:29.013Z,101520.87
2019-05-29T18:01:58.996Z,101514.66
2019-05-29T18:04:28.815Z,101518.48
2019-05-29T18:06:58.738Z,101517.61
2019-05-29T18:09:29.316Z,101521.86
2019-05-29T18:11:59.227Z,101527.12
2019-05-29T18:14:29.148Z,101518.01
2019-05-29T18:16:58.995Z,101523.50
2019-05-29T18:19:31.743Z,101527.98
2019-05-29T18:22:02.161Z,101532.59
2019-05-29T18:24:36.105Z,101530.32
2019-05-29T18:27:06.511Z,101536.59
2019-05-29T18:29:39.304Z,101529.49
2019-05-29T18:32:09.653Z,101531.36
2019-05-29T18:34:40.019Z,101534.02
2019-05-29T18:37:15.291Z,101534.63
2019-05-29T18:39:46.813Z,101540.10
2019-05-29T18:42:16.894Z,101545.39
2019-05-29T18:44:46.988Z,101545.47
2019-05-29T18:47:16.934Z,101555.28
2019-05-29T18:49:46.984Z,101548.36
2019-05-29T18:52:19.174Z,101553.67
2019-05-29T18:54:49.722Z,101554.66
2019-05-29T18:57:23.069Z,101559.93
2019-05-29T18:59:53.345Z,101558.79
2019-05-29T19:02:27.395Z,101555.63
2019-05-29T19:04:59.831Z,101560.21
2019-05-29T19:07:30.183Z,101563.80
2019-05-29T19:10:06.657Z,101566.22
2019-05-29T19:12:36.364Z,101573.68
2019-05-29T19:15:08.258Z,101577.98
2019-05-29T19:17:38.429Z,101581.06
2019-05-29T19:20:11.116Z,101575.27
2019-05-29T19:22:43.960Z,101577.73
2019-05-29T19:25:14.440Z,101584.89
2019-05-29T19:27:46.067Z,101589.36
2019-05-29T19:30:17.220Z,101589.31
2019-05-29T19:32:47.246Z,101599.86
2019-05-29T19:35:23.390Z,101597.23
2019-05-29T19:37:53.945Z,101600.16
2019-05-29T19:40:24.224Z,101604.16
2019-05-29T19:42:54.838Z,101607.64
2019-05-29T19:45:26.457Z,101617.63
2019-05-29T19:47:58.645Z,101610.94
2019-05-29T19:50:28.835Z,101612.34
2019-05-29T19:52:58.653Z,101622.84
2019-05-29T19:55:31.764Z,101621.98
2019-05-29T19:58:00.311Z,101630.77
2019-05-29T20:00:30.310Z,101631.14
2019-05-29T20:03:00.275Z,101636.27
2019-05-29T20:05:30.654Z,101636.64
2019-05-29T20:08:00.597Z,101638.72
2019-05-29T20:10:31.331Z,101645.75
2019-05-29T20:13:01.449Z,101647.81
2019-05-29T20:15:31.937Z,101649.55
2019-05-29T20:18:01.982Z,101646.98
2019-05-29T20:20:32.392Z,101664.47
2019-05-29T20:23:02.335Z,101660.36
2019-05-29T20:25:32.806Z,101658.45
2019-05-29T20:28:06.510Z,101664.45
2019-05-29T20:30:34.398Z,101659.12
2019-05-29T20:33:04.272Z,101659.98
2019-05-29T20:35:34.846Z,101656.89
2019-05-29T20:38:06.660Z,101656.84
2019-05-29T20:40:37.340Z,101669.82
2019-05-29T20:43:07.243Z,101668.29
2019-05-29T20:45:37.666Z,101668.94
2019-05-29T20:48:07.741Z,101673.56
2019-05-29T20:50:37.606Z,101683.79
2019-05-29T20:53:07.500Z,101672.80
2019-05-29T20:55:37.741Z,101680.31
2019-05-29T20:58:23.463Z,101676.47
2019-05-29T21:00:40.374Z,101677.45
2019-05-29T21:03:10.222Z,101680.48
2019-05-29T21:05:40.814Z,101676.53
2019-05-29T21:08:10.851Z,101689.67
2019-05-29T21:10:41.996Z,101683.97
2019-05-29T21:13:12.285Z,101686.31
2019-05-29T21:15:42.180Z,101686.10
2019-05-29T21:18:12.112Z,101685.23
2019-05-29T21:20:42.682Z,101689.15
2019-05-29T21:23:12.580Z,101691.86
2019-05-29T21:25:42.924Z,101694.70
2019-05-29T21:28:12.859Z,101691.73
2019-05-29T21:30:43.720Z,101697.52
2019-05-29T21:33:13.583Z,101695.84
2019-05-29T21:35:44.286Z,101700.95
2019-05-29T21:38:16.415Z,101696.25
2019-05-29T21:40:46.784Z,101697.14
2019-05-29T21:43:17.021Z,101697.50
2019-05-29T21:45:47.318Z,101698.10
2019-05-29T21:48:17.344Z,101697.69
2019-05-29T21:50:47.500Z,101691.48
2019-05-29T21:53:17.342Z,101700.86
2019-05-29T21:55:47.884Z,101699.34
2019-05-29T21:58:18.320Z,101701.21
2019-05-29T22:00:50.872Z,101702.77
2019-05-29T22:03:21.845Z,101711.21
2019-05-29T22:05:52.220Z,101709.81
2019-05-29T22:08:22.303Z,101715.91
2019-05-29T22:10:53.449Z,101715.17
2019-05-29T22:13:23.949Z,101715.77
2019-05-29T22:15:54.829Z,101715.88
2019-05-29T22:18:25.320Z,101721.14
2019-05-29T22:20:57.053Z,101724.49
2019-05-29T22:23:27.459Z,101719.00
2019-05-29T22:25:57.511Z,101725.47
2019-05-29T22:28:27.804Z,101725.77
2019-05-29T22:30:57.884Z,101729.14
2019-05-29T22:33:27.991Z,101732.92
2019-05-29T22:35:58.042Z,101732.46
2019-05-29T22:38:28.355Z,101733.39
2019-05-29T22:40:59.679Z,101735.37
2019-05-29T22:43:30.005Z,101737.35
2019-05-29T22:46:00.152Z,101734.55
2019-05-29T22:48:30.210Z,101729.05
2019-05-29T22:51:00.239Z,101732.02
2019-05-29T22:53:30.514Z,101732.66
2019-05-29T22:56:01.706Z,101736.72
2019-05-29T22:58:32.244Z,101734.64
2019-05-29T23:01:02.369Z,101741.39
2019-05-29T23:03:32.669Z,101737.80
2019-05-29T23:06:03.105Z,101735.16
2019-05-29T23:08:33.215Z,101734.94
2019-05-29T23:11:03.205Z,101739.13
2019-05-29T23:13:33.193Z,101730.53
2019-05-29T23:16:04.084Z,101729.03
2019-05-29T23:18:34.476Z,101732.19
2019-05-29T23:21:10.198Z,101731.47
2019-05-29T23:23:43.102Z,101726.59
2019-05-29T23:26:13.489Z,101727.37
2019-05-29T23:28:44.461Z,101731.78
2019-05-29T23:31:16.112Z,101728.33
2019-05-29T23:33:46.711Z,101729.61
2019-05-29T23:36:17.072Z,101722.93
2019-05-29T23:38:47.923Z,101736.06
2019-05-29T23:41:18.300Z,101725.52
2019-05-29T23:43:48.827Z,101725.52
2019-05-29T23:46:20.044Z,101725.52
2019-05-29T23:48:51.123Z,101717.11
2019-05-29T23:51:21.939Z,101722.70
2019-05-29T23:53:53.518Z,101719.26
2019-05-29T23:56:24.338Z,101720.48
2019-05-29T23:58:57.824Z,101716.90
